createdAt,value
2022-09-12T00:04:12.414Z,2.96
2022-09-12T00:09:19.734Z,2.95
2022-09-12T00:14:27.753Z,2.95
2022-09-12T00:19:34.549Z,2.95
2022-09-12T00:24:42.517Z,2.95
2022-09-12T00:29:50.404Z,2.95
2022-09-12T00:34:57.124Z,2.95
2022-09-12T00:40:04.169Z,2.96
2022-09-12T00:45:10.640Z,2.95
2022-09-12T00:50:17.817Z,2.95
2022-09-12T00:55:25.930Z,2.95
2022-09-12T01:00:33.600Z,2.95
2022-09-12T01:05:41.997Z,2.95
2022-09-12T01:10:49.681Z,2.95
2022-09-12T01:15:57.526Z,2.95
2022-09-12T01:21:05.373Z,2.96
2022-09-12T01:26:13.397Z,2.95
2022-09-12T01:31:20.534Z,2.95
2022-09-12T01:36:27.946Z,2.95
2022-09-12T01:41:37.002Z,2.95
2022-09-12T01:46:44.933Z,2.96
2022-09-12T01:51:52.917Z,2.95
2022-09-12T01:56:59.733Z,2.95
2022-09-12T02:02:08.082Z,2.96
2022-09-12T02:07:15.859Z,2.96
2022-09-12T02:12:21.973Z,2.95
2022-09-12T02:17:30.496Z,2.95
2022-09-12T02:22:38.371Z,2.95
2022-09-12T02:27:45.585Z,2.96
2022-09-12T02:32:53.836Z,2.95
2022-09-12T02:38:01.198Z,2.95
2022-09-12T02:43:08.806Z,2.95
2022-09-12T02:48:15.071Z,2.95
2022-09-12T02:53:22.341Z,2.95
2022-09-12T02:58:30.285Z,2.95
2022-09-12T03:03:38.512Z,2.95
2022-09-12T03:08:46.871Z,2.95
2022-09-12T03:13:54.172Z,2.95
2022-09-12T03:19:00.698Z,2.95
2022-09-12T03:24:09.689Z,2.94
2022-09-12T03:29:17.363Z,2.94
2022-09-12T03:34:24.316Z,2.95
2022-09-12T03:39:32.140Z,2.95
2022-09-12T03:44:39.289Z,2.95
2022-09-12T03:49:47.596Z,2.96
2022-09-12T03:54:54.976Z,2.95
2022-09-12T04:00:02.708Z,2.95
2022-09-12T04:05:11.280Z,2.95
2022-09-12T04:10:20.131Z,2.94
2022-09-12T04:15:27.854Z,2.94
2022-09-12T04:20:41.162Z,2.95
2022-09-12T04:25:47.897Z,2.95
2022-09-12T04:30:55.585Z,2.94
2022-09-12T04:36:02.779Z,2.95
2022-09-12T04:41:10.011Z,2.95
2022-09-12T04:46:17.855Z,2.94
2022-09-12T04:51:25.020Z,2.94
2022-09-12T04:56:32.213Z,2.94
2022-09-12T05:01:40.572Z,2.95
2022-09-12T05:06:47.902Z,2.94
2022-09-12T05:11:56.406Z,2.95
2022-09-12T05:17:04.286Z,2.95
2022-09-12T05:22:18.456Z,2.95
2022-09-12T05:27:25.780Z,2.96
2022-09-12T05:32:34.169Z,2.95
2022-09-12T05:37:41.339Z,2.95
2022-09-12T05:42:48.891Z,2.94
2022-09-12T05:47:56.397Z,2.95
2022-09-12T05:53:03.576Z,2.95
2022-09-12T05:58:12.036Z,2.96
2022-09-12T06:03:20.543Z,2.96
2022-09-12T06:08:27.106Z,2.96
2022-09-12T06:13:34.294Z,2.96
2022-09-12T06:18:41.163Z,2.97
2022-09-12T06:23:49.586Z,2.97
2022-09-12T06:28:56.876Z,2.95
2022-09-12T06:34:04.382Z,2.97
2022-09-12T06:39:11.575Z,2.97
2022-09-12T06:44:20.668Z,2.97
2022-09-12T06:49:29.961Z,2.96
2022-09-12T06:54:37.123Z,2.97
2022-09-12T06:59:43.611Z,2.96
2022-09-12T07:04:52.046Z,2.98
2022-09-12T07:09:59.928Z,2.97
2022-09-12T07:15:08.381Z,2.97
2022-09-12T07:20:17.450Z,2.97
2022-09-12T07:25:26.635Z,2.98
2022-09-12T07:30:34.843Z,2.98
2022-09-12T07:35:42.436Z,2.97
2022-09-12T07:40:50.310Z,2.98
2022-09-12T07:45:59.142Z,2.99
2022-09-12T07:51:07.709Z,2.97
2022-09-12T07:56:14.647Z,2.97
2022-09-12T08:01:24.007Z,2.97
2022-09-12T08:06:30.941Z,2.98
2022-09-12T08:11:39.056Z,2.98
2022-09-12T08:16:45.658Z,2.98
2022-09-12T08:21:53.294Z,2.98
2022-09-12T08:27:00.728Z,2.98
2022-09-12T08:32:07.994Z,2.98
2022-09-12T08:37:13.842Z,2.98
2022-09-12T08:42:22.046Z,2.98
2022-09-12T08:47:29.846Z,2.99
2022-09-12T08:52:37.002Z,2.98
2022-09-12T08:57:44.521Z,2.99
2022-09-12T09:02:52.089Z,2.99
2022-09-12T09:07:59.581Z,2.98
2022-09-12T09:13:07.047Z,2.99
2022-09-12T09:18:14.636Z,3.0
2022-09-12T09:23:23.453Z,3.0
2022-09-12T09:28:30.485Z,2.99
2022-09-12T09:33:36.860Z,3.0
2022-09-12T09:38:44.060Z,3.0
2022-09-12T09:43:51.900Z,2.99
2022-09-12T09:48:58.661Z,2.99
2022-09-12T09:54:05.911Z,3.0
2022-09-12T09:59:13.354Z,2.99
2022-09-12T10:04:20.801Z,3.0
2022-09-12T10:09:27.831Z,2.99
2022-09-12T10:14:37.007Z,2.99
2022-09-12T10:19:45.768Z,3.0
2022-09-12T10:24:53.350Z,3.0
2022-09-12T10:30:02.505Z,3.0
2022-09-12T10:35:08.999Z,2.99
2022-09-12T10:40:15.582Z,2.98
2022-09-12T10:45:22.137Z,2.99
2022-09-12T10:50:31.769Z,2.98
2022-09-12T10:55:40.528Z,3.01
2022-09-12T11:00:47.963Z,2.99
2022-09-12T11:05:56.961Z,3.01
2022-09-12T11:11:04.099Z,2.99
2022-09-12T11:16:12.934Z,2.98
2022-09-12T11:21:20.745Z,3.0
2022-09-12T11:26:26.794Z,3.0
2022-09-12T11:31:35.004Z,2.99
2022-09-12T11:36:43.607Z,3.0
2022-09-12T11:41:50.414Z,3.0
2022-09-12T11:46:56.890Z,3.0
2022-09-12T11:52:04.802Z,3.0
2022-09-12T11:57:11.931Z,2.99
2022-09-12T12:02:19.819Z,2.99
2022-09-12T12:07:26.938Z,3.0
2022-09-12T12:12:34.136Z,2.99
2022-09-12T12:17:40.737Z,3.0
2022-09-12T12:22:47.957Z,2.99
2022-09-12T12:27:55.707Z,3.0
2022-09-12T12:33:02.329Z,2.99
2022-09-12T12:38:09.524Z,3.0
2022-09-12T12:43:17.288Z,2.98
2022-09-12T12:48:24.539Z,3.0
2022-09-12T12:53:31.742Z,3.0
2022-09-12T12:58:42.812Z,3.0
2022-09-12T13:03:50.002Z,3.0
2022-09-12T13:08:57.814Z,3.0
2022-09-12T13:14:05.302Z,3.0
2022-09-12T13:19:12.536Z,3.0
2022-09-12T13:24:18.915Z,3.0
2022-09-12T13:29:25.336Z,2.99
2022-09-12T13:34:33.305Z,3.0
2022-09-12T13:39:41.422Z,2.99
2022-09-12T13:44:49.232Z,2.99
2022-09-12T13:49:57.334Z,2.98
2022-09-12T13:55:06.429Z,3.0
2022-09-12T14:00:14.323Z,3.0
2022-09-12T14:05:20.864Z,2.99
2022-09-12T14:10:28.741Z,2.99
2022-09-12T14:15:39.196Z,3.0
2022-09-12T14:20:45.016Z,3.0
2022-09-12T14:25:51.594Z,2.98
2022-09-12T14:30:59.247Z,3.0
2022-09-12T14:36:06.616Z,2.99
2022-09-12T14:41:13.534Z,3.0
2022-09-12T14:46:22.614Z,2.99
2022-09-12T14:51:30.939Z,3.0
2022-09-12T14:56:37.986Z,3.0
2022-09-12T15:01:44.753Z,3.0
2022-09-12T15:06:51.784Z,2.99
2022-09-12T15:12:00.227Z,2.98
2022-09-12T15:17:07.426Z,2.98
2022-09-12T15:22:21.614Z,2.99
2022-09-12T15:27:30.083Z,2.98
2022-09-12T15:32:37.761Z,2.98
2022-09-12T15:37:45.225Z,2.99
2022-09-12T15:42:53.587Z,2.98
2022-09-12T15:48:00.681Z,2.98
2022-09-12T15:53:07.455Z,2.99
2022-09-12T15:58:14.972Z,2.99
2022-09-12T16:03:22.544Z,2.99
2022-09-12T16:08:29.842Z,2.98
2022-09-12T16:13:36.938Z,2.98
2022-09-12T16:18:44.646Z,2.98
2022-09-12T16:23:52.580Z,2.98
2022-09-12T16:29:00.285Z,2.98
2022-09-12T16:34:08.136Z,2.99
2022-09-12T16:39:15.461Z,2.98
2022-09-12T16:44:23.228Z,2.97
2022-09-12T16:49:31.130Z,2.97
2022-09-12T16:54:37.993Z,2.97
2022-09-12T16:59:45.530Z,2.98
2022-09-12T17:04:52.721Z,2.97
2022-09-12T17:09:58.657Z,2.97
2022-09-12T17:15:06.090Z,2.98
2022-09-12T17:20:13.622Z,2.97
2022-09-12T17:25:20.252Z,2.96
2022-09-12T17:30:27.465Z,2.97
2022-09-12T17:35:35.767Z,2.96
2022-09-12T17:40:43.644Z,2.96
2022-09-12T17:45:51.661Z,2.97
2022-09-12T17:50:59.417Z,2.96
2022-09-12T17:56:08.602Z,2.96
2022-09-12T18:01:17.292Z,2.97
2022-09-12T18:06:24.894Z,2.96
2022-09-12T18:11:32.080Z,2.96
2022-09-12T18:16:40.857Z,2.96
2022-09-12T18:21:48.128Z,2.96
2022-09-12T18:26:56.257Z,2.97
2022-09-12T18:32:04.032Z,2.97
2022-09-12T18:37:11.261Z,2.95
2022-09-12T18:42:19.670Z,2.96
2022-09-12T18:47:26.978Z,2.95
2022-09-12T18:52:34.424Z,2.95
2022-09-12T18:57:42.584Z,2.96
2022-09-12T19:02:49.982Z,2.96
2022-09-12T19:07:57.097Z,2.95
2022-09-12T19:13:04.997Z,2.96
2022-09-12T19:18:13.834Z,2.95
2022-09-12T19:23:23.579Z,2.96
2022-09-12T19:28:31.026Z,2.95
2022-09-12T19:33:38.902Z,2.95
2022-09-12T19:38:45.441Z,2.96
2022-09-12T19:43:53.265Z,2.95
2022-09-12T19:49:00.478Z,2.96
2022-09-12T20:17:24.649Z,2.95
2022-09-12T20:22:30.017Z,2.95
2022-09-12T20:27:43.934Z,2.95
2022-09-12T20:32:50.096Z,2.95
2022-09-12T20:37:57.376Z,2.95
2022-09-12T20:43:04.768Z,2.95
2022-09-12T20:48:11.779Z,2.94
2022-09-12T20:53:19.261Z,2.95
2022-09-12T20:58:27.975Z,2.94
2022-09-12T21:03:34.712Z,2.95
2022-09-12T21:08:42.840Z,2.94
2022-09-12T21:13:56.732Z,2.94
2022-09-12T21:19:03.924Z,2.95
2022-09-12T21:24:12.457Z,2.95
2022-09-12T21:29:21.200Z,2.95
2022-09-12T21:34:29.307Z,2.95
2022-09-12T21:39:37.860Z,2.96
2022-09-12T21:44:45.782Z,2.95
2022-09-12T21:49:52.838Z,2.95
2022-09-12T21:55:00.211Z,2.95
2022-09-12T22:00:08.210Z,2.95
2022-09-12T22:05:14.830Z,2.94
2022-09-12T22:10:23.571Z,2.95
2022-09-12T22:15:31.973Z,2.94
2022-09-12T22:20:41.108Z,2.94
2022-09-12T22:25:47.765Z,2.96
2022-09-12T22:30:55.485Z,2.94
2022-09-12T22:36:03.249Z,2.95
2022-09-12T22:41:10.649Z,2.95
2022-09-12T22:46:18.233Z,2.94
2022-09-12T22:51:25.031Z,2.95
2022-09-12T22:56:32.696Z,2.95
2022-09-12T23:01:40.327Z,2.94
2022-09-12T23:06:48.097Z,2.95
2022-09-12T23:11:55.590Z,2.95
2022-09-12T23:17:04.442Z,2.94
2022-09-12T23:22:12.096Z,2.95
2022-09-12T23:27:19.897Z,2.94
2022-09-12T23:32:28.939Z,2.95
2022-09-12T23:37:36.999Z,2.93
2022-09-12T23:42:45.142Z,2.94
2022-09-12T23:47:51.759Z,2.94
2022-09-12T23:52:58.471Z,2.95
2022-09-12T23:58:06.906Z,2.94
